Pagrindinis puslapis
METAR-TAF:

METAR-TAF

Oro uostai :

Kišiniovas, Moldavija

platuma: 46-55-40N, ilguma: 028-55-51E, Aukštis: 122 m

Dabartinis oras

Ataskaita buvo paskelbta 25 minutes, ne 09:30 UTC
Vėjas 7 kt iš Pietų/Pietryčių, svyruoja nuo Pietryčių ir Pietų/Pietvakarių
Temperatūra 30°C
Drėgmė 49%
Slėgis 1011 hPa
Matomumas 10 km arba daugiau
nėra debesų žemiau 1500 m ir nėra kamuolinių lietaus debesų

METAR: LUKK 310930Z 16007KT 130V200 CAVOK 30/18 Q1011 R09/D NOSIG

Laikas: 12:55 (09:55 UTC)

Prognozė

Ataskaita buvo paskelbta 4 valandos ir 35 minutes, ne 05:20 UTC
Prognozė galioja nuo 31 metu 06 UTC su 01 metu 06 UTC
Vėjas 8 kt iš Pietų/Pietryčių
Matomumas 10 km arba daugiau
nėra debesų žemiau 1500 m ir nėra kamuolinių lietaus debesų
Laikinai
nuo 31 metu 10 UTC su 31 metu 18 UTC
Vėjas 16 kt nuo kintamojo kryptimis su gūsio iki 26 kt
Išsisklaidę debesys ne aukštis 4500 ft, Liūtiniai kamuoliniai debesys.
perkūnija, lietus

TAF: LUKK 310520Z 3106/0106 16008KT CAVOK TEMPO 3110/3118 VRB16G26KT -TSRA SCT045CB

Orai ataskaitas ir orų prognozės (METAR, TAF).

turimą stotys yra geltonos ir raudonos taškus žemėlapyje.

Perkelti pele per norėdami pamatyti stoties vardą.

Tada spustelėkite, norėdami matyti oro stebėjimo ir prognozės.

Norėdami pakeisti žemėlapį: spustelėkite ant žalios mygtukų su juodo kryžiaus žemyn,; žalią mygtuką su brūkšneliu, jei norite nutolinti; arba žalių rodyklių gretimoms žemėlapius.


METAR-TAF: